createdAt,value
2023-05-08T00:02:07.418Z,5.57
2023-05-08T00:04:38.593Z,6.18
2023-05-08T00:07:15.614Z,6.45
2023-05-08T00:09:52.489Z,5.63
2023-05-08T00:12:25.515Z,6.05
2023-05-08T00:15:02.631Z,5.43
2023-05-08T00:17:33.510Z,6.15
2023-05-08T00:20:08.714Z,5.70
2023-05-08T00:22:42.928Z,7.13
2023-05-08T00:25:21.049Z,7.07
2023-05-08T00:27:54.641Z,5.95
2023-05-08T00:33:01.157Z,6.13
2023-05-08T00:35:41.121Z,5.72
2023-05-08T00:38:11.633Z,5.28
2023-05-08T00:40:43.513Z,7.20
2023-05-08T00:43:28.018Z,6.88
2023-05-08T00:46:10.119Z,6.63
2023-05-08T00:48:40.873Z,6.10
2023-05-08T00:51:15.185Z,7.45
2023-05-08T00:53:46.725Z,5.75
2023-05-08T00:56:18.256Z,5.90
2023-05-08T00:58:54.152Z,5.05
2023-05-08T01:01:29.987Z,5.55
2023-05-08T01:04:04.138Z,5.22
2023-05-08T01:06:36.815Z,5.25
2023-05-08T01:09:15.523Z,6.40
2023-05-08T01:12:16.332Z,4.68
2023-05-08T01:15:11.092Z,6.15
2023-05-08T01:18:15.783Z,5.70
2023-05-08T01:21:42.145Z,5.95
2023-05-08T01:25:00.676Z,6.40
2023-05-08T01:27:55.397Z,4.95
2023-05-08T01:30:41.554Z,5.72
2023-05-08T01:33:20.252Z,5.18
2023-05-08T01:36:01.705Z,6.28
2023-05-08T01:39:05.432Z,5.32
2023-05-08T01:41:42.154Z,4.93
2023-05-08T01:44:22.655Z,5.53
2023-05-08T01:47:04.784Z,7.50
2023-05-08T01:49:48.211Z,6.18
2023-05-08T01:52:34.645Z,5.63
2023-05-08T01:55:15.095Z,5.82
2023-05-08T01:57:55.239Z,5.05
2023-05-08T02:00:29.978Z,5.10
2023-05-08T02:03:08.759Z,5.68
2023-05-08T02:05:47.681Z,4.03
2023-05-08T02:08:18.749Z,5.70
2023-05-08T02:10:52.601Z,5.93
2023-05-08T02:13:26.721Z,4.60
2023-05-08T02:16:07.140Z,4.63
2023-05-08T02:18:44.822Z,4.32
2023-05-08T02:21:20.151Z,5.68
2023-05-08T02:23:59.073Z,4.80
2023-05-08T02:26:35.991Z,5.63
2023-05-08T02:29:09.676Z,5.53
2023-05-08T02:31:42.302Z,5.50
2023-05-08T02:34:13.843Z,5.97
2023-05-08T02:36:47.655Z,5.45
2023-05-08T02:39:25.726Z,4.82
2023-05-08T02:41:58.727Z,4.38
2023-05-08T02:44:32.686Z,5.53
2023-05-08T02:47:28.063Z,4.30
2023-05-08T02:50:43.503Z,4.93
2023-05-08T02:53:27.033Z,4.45
2023-05-08T02:56:11.518Z,4.30
2023-05-08T02:59:15.857Z,4.45
2023-05-08T03:01:56.847Z,4.82
2023-05-08T03:04:34.836Z,6.20
2023-05-08T03:07:09.406Z,6.05
2023-05-08T03:09:48.839Z,4.45
2023-05-08T03:12:21.177Z,5.38
2023-05-08T03:15:12.496Z,7.30
2023-05-08T03:17:47.823Z,8.25
2023-05-08T03:20:22.064Z,11.23
2023-05-08T03:22:57.187Z,9.60
2023-05-08T03:25:29.329Z,10.05
2023-05-08T03:27:58.610Z,18.35
2023-05-08T03:30:29.157Z,11.68
2023-05-08T03:33:05.818Z,10.93
2023-05-08T03:35:39.266Z,7.65
2023-05-08T03:38:14.561Z,12.20
2023-05-08T03:40:42.908Z,8.80
2023-05-08T03:43:16.663Z,7.22
2023-05-08T03:45:46.113Z,10.57
2023-05-08T03:48:20.215Z,9.45
2023-05-08T03:50:53.542Z,7.65
2023-05-08T03:53:21.238Z,6.60
2023-05-08T03:55:51.116Z,8.00
2023-05-08T03:58:31.520Z,7.97
2023-05-08T04:01:08.833Z,8.20
2023-05-08T04:04:06.239Z,10.32
2023-05-08T04:06:56.950Z,9.55
2023-05-08T04:09:45.899Z,5.63
2023-05-08T04:12:20.721Z,8.00
2023-05-08T04:15:01.593Z,7.35
2023-05-08T04:17:43.867Z,5.57
2023-05-08T04:20:19.483Z,4.93
2023-05-08T04:22:49.796Z,6.22
2023-05-08T04:25:21.710Z,7.63
2023-05-08T04:27:57.545Z,7.80
2023-05-08T04:30:26.457Z,7.95
2023-05-08T04:32:58.282Z,6.95
2023-05-08T04:35:33.778Z,5.30
2023-05-08T04:38:02.481Z,5.15
2023-05-08T04:40:30.408Z,5.45
2023-05-08T04:42:59.413Z,5.03
2023-05-08T04:45:30.067Z,4.85
2023-05-08T04:48:00.983Z,7.50
2023-05-08T04:50:31.311Z,6.63
2023-05-08T04:52:58.829Z,7.95
2023-05-08T04:55:26.831Z,4.32
2023-05-08T04:58:02.272Z,5.85
2023-05-08T05:00:32.208Z,5.40
2023-05-08T05:02:59.935Z,6.63
2023-05-08T05:05:30.178Z,7.53
2023-05-08T05:08:04.298Z,4.95
2023-05-08T05:10:35.039Z,6.32
2023-05-08T05:13:02.708Z,6.32
2023-05-08T05:15:35.118Z,3.53
2023-05-08T05:18:02.878Z,5.55
2023-05-08T05:20:33.756Z,6.68
2023-05-08T05:23:03.794Z,4.57
2023-05-08T05:25:34.153Z,5.85
2023-05-08T05:28:02.335Z,5.90
2023-05-08T05:30:35.198Z,6.50
2023-05-08T05:33:07.315Z,5.30
2023-05-08T05:35:42.033Z,7.85
2023-05-08T05:38:10.080Z,4.60
2023-05-08T05:40:46.551Z,5.70
2023-05-08T05:43:20.718Z,6.03
2023-05-08T05:45:51.217Z,5.03
2023-05-08T05:48:21.458Z,4.72
2023-05-08T05:50:54.545Z,4.97
2023-05-08T05:53:24.758Z,5.53
2023-05-08T05:55:53.529Z,6.10
2023-05-08T05:58:24.832Z,4.95
2023-05-08T06:00:54.601Z,4.63
2023-05-08T06:03:28.168Z,5.97
2023-05-08T06:06:10.069Z,7.43
2023-05-08T06:08:43.522Z,4.75
2023-05-08T06:11:13.344Z,6.35
2023-05-08T06:13:50.469Z,6.65
2023-05-08T06:16:20.860Z,6.82
2023-05-08T06:18:51.674Z,6.95
2023-05-08T06:21:23.763Z,6.78
2023-05-08T06:23:53.670Z,4.38
2023-05-08T06:26:24.188Z,4.32
2023-05-08T06:28:52.359Z,3.15
2023-05-08T06:31:22.541Z,3.90
2023-05-08T06:33:49.965Z,4.07
2023-05-08T06:36:23.899Z,6.70
2023-05-08T06:38:54.456Z,4.55
2023-05-08T06:41:27.616Z,5.65
2023-05-08T06:44:00.153Z,4.18
2023-05-08T06:46:30.765Z,5.15
2023-05-08T06:49:03.941Z,5.80
2023-05-08T06:51:35.705Z,4.75
2023-05-08T06:54:05.640Z,3.30
2023-05-08T06:56:35.903Z,5.63
2023-05-08T06:59:08.834Z,4.40
2023-05-08T07:01:42.897Z,4.95
2023-05-08T07:04:12.909Z,5.03
2023-05-08T07:06:40.770Z,5.00
2023-05-08T07:09:08.568Z,5.57
2023-05-08T07:11:39.370Z,3.53
2023-05-08T07:14:09.087Z,6.18
2023-05-08T07:16:38.068Z,5.30
2023-05-08T07:19:08.732Z,4.32
2023-05-08T07:21:40.295Z,5.68
2023-05-08T07:24:14.157Z,5.50
2023-05-08T07:26:47.476Z,4.35
2023-05-08T07:29:15.627Z,6.38
2023-05-08T07:31:48.371Z,5.40
2023-05-08T07:34:19.465Z,4.70
2023-05-08T07:36:52.771Z,4.93
2023-05-08T07:39:23.559Z,5.22
2023-05-08T07:41:56.782Z,4.75
2023-05-08T07:46:55.284Z,5.35
2023-05-08T07:49:23.138Z,6.43
2023-05-08T07:51:52.000Z,7.40
2023-05-08T07:54:20.632Z,5.80
2023-05-08T07:56:51.728Z,6.03
2023-05-08T07:59:20.007Z,7.22
2023-05-08T08:01:50.674Z,6.43
2023-05-08T08:04:22.419Z,6.72
2023-05-08T08:06:53.833Z,8.23
2023-05-08T08:09:21.958Z,7.78
2023-05-08T08:11:54.965Z,7.13
2023-05-08T08:14:25.375Z,8.27
2023-05-08T08:16:55.871Z,7.72
2023-05-08T08:19:28.402Z,6.38
2023-05-08T08:22:02.594Z,7.15
2023-05-08T08:24:35.830Z,8.07
2023-05-08T08:27:05.165Z,7.60
2023-05-08T08:29:35.979Z,8.07
2023-05-08T08:32:10.351Z,6.60
2023-05-08T08:34:44.895Z,7.75
2023-05-08T08:37:15.713Z,8.43
2023-05-08T08:39:43.842Z,7.90
2023-05-08T08:42:13.843Z,8.88
2023-05-08T08:44:44.471Z,8.80
2023-05-08T08:47:17.087Z,7.93
2023-05-08T08:49:51.353Z,8.13
2023-05-08T08:52:32.826Z,8.27
2023-05-08T08:55:09.916Z,8.38
2023-05-08T08:57:50.309Z,7.57
2023-05-08T09:00:22.656Z,8.43
2023-05-08T09:02:58.670Z,8.23
2023-05-08T09:05:29.646Z,9.30
2023-05-08T09:08:11.114Z,9.05
2023-05-08T09:10:42.407Z,8.35
2023-05-08T09:13:13.642Z,7.35
2023-05-08T09:15:46.816Z,8.07
2023-05-08T09:18:16.910Z,9.23
2023-05-08T09:20:49.973Z,9.00
2023-05-08T09:23:20.027Z,8.88
2023-05-08T09:25:53.348Z,9.82
2023-05-08T09:30:59.247Z,7.70
2023-05-08T09:33:30.490Z,9.77
2023-05-08T09:36:01.719Z,8.85
2023-05-08T09:38:44.280Z,9.50
2023-05-08T09:41:19.829Z,8.48
2023-05-08T09:44:04.981Z,9.02
2023-05-08T09:46:36.121Z,8.90
2023-05-08T09:49:07.471Z,9.40
2023-05-08T09:51:37.962Z,9.80
2023-05-08T09:54:20.802Z,8.90
2023-05-08T09:56:48.974Z,9.00
2023-05-08T09:59:28.463Z,9.48
2023-05-08T10:02:10.439Z,8.68
2023-05-08T10:04:41.538Z,9.25
2023-05-08T10:07:11.732Z,8.48
2023-05-08T10:09:59.270Z,10.52
2023-05-08T10:12:29.921Z,9.10
2023-05-08T10:14:58.665Z,8.77
2023-05-08T10:17:59.402Z,9.60
2023-05-08T10:20:33.496Z,8.25
2023-05-08T10:23:11.512Z,8.55
2023-05-08T10:25:55.129Z,9.18
2023-05-08T10:28:35.247Z,8.73
2023-05-08T10:31:08.066Z,9.55
2023-05-08T10:33:41.858Z,8.90
2023-05-08T10:36:24.934Z,8.95
2023-05-08T10:38:54.691Z,9.35
2023-05-08T10:41:34.916Z,8.75
2023-05-08T10:44:06.856Z,9.07
2023-05-08T10:46:47.559Z,10.63
2023-05-08T10:49:30.384Z,10.63
2023-05-08T10:52:16.426Z,10.70
2023-05-08T10:54:59.336Z,8.70
2023-05-08T10:57:29.821Z,9.48
2023-05-08T11:00:00.205Z,11.07
2023-05-08T11:02:30.096Z,9.13
2023-05-08T11:05:18.848Z,10.30
2023-05-08T11:07:57.328Z,10.55
2023-05-08T11:10:37.035Z,8.85
2023-05-08T11:13:10.135Z,9.13
2023-05-08T11:15:39.415Z,10.32
2023-05-08T11:18:09.429Z,8.00
2023-05-08T11:21:03.972Z,7.78
2023-05-08T11:23:36.224Z,7.95
2023-05-08T11:26:16.553Z,8.13
2023-05-08T11:28:53.186Z,9.13
2023-05-08T11:31:50.119Z,8.20
2023-05-08T11:34:52.821Z,7.95
2023-05-08T11:37:22.642Z,7.63
2023-05-08T11:39:53.643Z,6.97
2023-05-08T11:42:27.117Z,9.48
2023-05-08T11:45:08.228Z,10.27
2023-05-08T11:47:43.789Z,8.70
2023-05-08T11:50:17.537Z,8.48
2023-05-08T11:52:49.384Z,9.00
2023-05-08T11:55:23.264Z,8.10
2023-05-08T11:57:58.150Z,12.10
2023-05-08T12:00:28.413Z,9.30
2023-05-08T12:03:09.187Z,8.98
2023-05-08T12:05:40.776Z,10.45
2023-05-08T12:08:13.089Z,10.50
2023-05-08T12:10:53.890Z,10.73
2023-05-08T12:13:33.473Z,9.57
2023-05-08T12:16:04.087Z,8.52
2023-05-08T12:18:34.672Z,9.52
2023-05-08T12:21:04.923Z,9.30
2023-05-08T12:23:38.326Z,10.10
2023-05-08T12:26:14.618Z,9.52
2023-05-08T12:28:54.295Z,9.20
2023-05-08T12:31:25.605Z,9.85
2023-05-08T12:33:56.491Z,8.68
2023-05-08T12:36:27.347Z,8.18
2023-05-08T12:39:16.759Z,9.88
2023-05-08T12:41:53.676Z,8.02
2023-05-08T12:44:28.300Z,9.50
2023-05-08T12:46:59.966Z,8.55
2023-05-08T12:49:30.008Z,8.30
2023-05-08T12:52:16.247Z,7.95
2023-05-08T12:54:51.309Z,7.90
2023-05-08T12:57:21.588Z,8.90
2023-05-08T13:00:05.994Z,8.20
2023-05-08T13:02:44.334Z,8.80
2023-05-08T13:05:22.930Z,8.65
2023-05-08T13:07:59.318Z,8.77
2023-05-08T13:10:29.628Z,8.60
2023-05-08T13:13:00.643Z,8.65
2023-05-08T13:15:35.193Z,8.60
2023-05-08T13:18:07.904Z,9.63
2023-05-08T13:20:39.690Z,8.73
2023-05-08T13:23:11.009Z,8.13
2023-05-08T13:25:40.202Z,7.70
2023-05-08T13:28:10.059Z,8.55
2023-05-08T13:30:40.742Z,8.10
2023-05-08T13:33:14.030Z,8.65
2023-05-08T13:35:44.857Z,8.40
2023-05-08T13:38:15.840Z,8.88
2023-05-08T13:40:48.986Z,7.82
2023-05-08T13:43:17.318Z,9.40
2023-05-08T13:45:47.973Z,9.85
2023-05-08T13:48:15.787Z,8.60
2023-05-08T13:50:46.239Z,9.65
2023-05-08T13:53:16.830Z,9.98
2023-05-08T13:56:02.500Z,9.35
2023-05-08T13:58:35.793Z,8.60
2023-05-08T14:01:21.831Z,9.48
2023-05-08T14:03:57.861Z,11.25
2023-05-08T14:06:26.127Z,9.05
2023-05-08T14:08:55.416Z,9.32
2023-05-08T14:11:25.059Z,9.50
2023-05-08T14:13:52.918Z,8.18
2023-05-08T14:16:33.698Z,9.80
2023-05-08T14:19:01.765Z,10.00
2023-05-08T14:21:35.086Z,9.25
2023-05-08T14:24:09.147Z,9.77
2023-05-08T14:26:44.856Z,9.32
2023-05-08T14:29:19.184Z,9.48
2023-05-08T14:31:49.347Z,9.60
2023-05-08T14:34:26.319Z,9.70
2023-05-08T14:36:57.663Z,8.13
2023-05-08T14:39:28.905Z,12.35
2023-05-08T14:42:21.337Z,9.00
2023-05-08T14:44:52.865Z,8.52
2023-05-08T14:47:27.538Z,9.65
2023-05-08T14:49:56.049Z,11.25
2023-05-08T14:52:33.168Z,8.95
2023-05-08T14:55:02.394Z,9.73
2023-05-08T14:57:35.391Z,10.85
2023-05-08T15:00:07.293Z,9.65
2023-05-08T15:02:37.882Z,9.32
2023-05-08T15:07:56.455Z,9.38
2023-05-08T15:10:27.535Z,9.23
2023-05-08T15:12:57.854Z,8.35
2023-05-08T15:15:28.477Z,9.52
2023-05-08T15:17:56.230Z,9.07
2023-05-08T15:20:24.250Z,9.65
2023-05-08T15:22:55.208Z,9.15
2023-05-08T15:25:32.229Z,9.65
2023-05-08T15:28:03.030Z,9.82
2023-05-08T15:30:33.983Z,9.25
2023-05-08T15:33:01.878Z,8.73
2023-05-08T15:35:35.450Z,8.88
2023-05-08T15:38:06.786Z,8.52
2023-05-08T15:40:37.634Z,8.63
2023-05-08T15:43:08.736Z,8.50
2023-05-08T15:45:36.477Z,10.35
2023-05-08T15:48:07.290Z,8.88
2023-05-08T15:50:37.804Z,7.35
2023-05-08T15:53:05.827Z,8.43
2023-05-08T15:55:39.858Z,8.10
2023-05-08T15:58:09.112Z,8.30
2023-05-08T16:00:45.730Z,7.95
2023-05-08T16:03:19.213Z,9.13
2023-05-08T16:08:22.106Z,8.77
2023-05-08T16:11:00.003Z,7.40
2023-05-08T16:13:31.003Z,7.18
2023-05-08T16:16:05.380Z,7.47
2023-05-08T16:18:38.692Z,8.52
2023-05-08T16:21:14.471Z,8.18
2023-05-08T16:23:48.189Z,8.57
2023-05-08T16:28:58.597Z,8.65
2023-05-08T16:31:29.718Z,9.55
2023-05-08T16:34:06.883Z,9.02
2023-05-08T16:36:45.947Z,8.18
2023-05-08T16:39:18.104Z,8.30
2023-05-08T16:41:54.996Z,8.82
2023-05-08T16:44:28.779Z,7.35
2023-05-08T16:49:34.016Z,7.30
2023-05-08T16:52:11.094Z,8.57
2023-05-08T16:54:40.157Z,7.65
2023-05-08T16:57:10.752Z,7.10
2023-05-08T16:59:46.843Z,7.20
2023-05-08T17:02:21.047Z,6.88
2023-05-08T17:04:57.741Z,8.32
2023-05-08T17:07:31.086Z,6.35
2023-05-08T17:10:08.189Z,7.68
2023-05-08T17:12:44.089Z,6.82
2023-05-08T17:15:17.778Z,7.28
2023-05-08T17:20:28.769Z,6.63
2023-05-08T17:22:59.500Z,6.40
2023-05-08T17:25:38.901Z,6.53
2023-05-08T17:28:07.936Z,7.00
2023-05-08T17:30:44.490Z,6.82
2023-05-08T17:33:21.132Z,7.18
2023-05-08T17:35:48.965Z,7.57
2023-05-08T17:38:22.252Z,6.45
2023-05-08T17:40:49.921Z,7.72
2023-05-08T17:43:20.985Z,6.90
2023-05-08T17:45:53.327Z,7.57
2023-05-08T17:48:29.336Z,6.88
2023-05-08T17:51:02.793Z,7.10
2023-05-08T17:53:35.974Z,8.13
2023-05-08T17:56:03.347Z,6.90
2023-05-08T17:58:42.350Z,7.60
2023-05-08T18:01:10.086Z,7.35
2023-05-08T18:03:49.472Z,7.80
2023-05-08T18:06:22.264Z,7.68
2023-05-08T18:08:50.021Z,7.20
2023-05-08T18:11:35.134Z,6.85
2023-05-08T18:14:06.296Z,6.57
2023-05-08T18:16:42.307Z,6.13
2023-05-08T18:19:15.313Z,9.68
2023-05-08T18:21:59.002Z,7.28
2023-05-08T18:24:29.880Z,6.38
2023-05-08T18:27:03.285Z,6.78
2023-05-08T18:29:36.959Z,6.03
2023-05-08T18:32:18.752Z,5.95
2023-05-08T18:34:49.693Z,7.80
2023-05-08T18:37:25.139Z,7.47
2023-05-08T18:40:03.478Z,6.93
2023-05-08T18:42:38.713Z,7.57
2023-05-08T18:45:12.489Z,7.72
2023-05-08T18:47:45.213Z,7.70
2023-05-08T18:50:21.325Z,7.03
2023-05-08T18:52:49.450Z,6.72
2023-05-08T18:55:27.142Z,7.65
2023-05-08T18:58:06.506Z,8.95
2023-05-08T19:00:48.424Z,6.97
2023-05-08T19:03:18.211Z,7.38
2023-05-08T19:05:51.722Z,7.03
2023-05-08T19:08:25.333Z,7.53
2023-05-08T19:13:39.844Z,7.72
2023-05-08T19:16:12.694Z,8.30
2023-05-08T19:18:43.676Z,8.20
2023-05-08T19:21:16.507Z,7.93
2023-05-08T19:23:49.354Z,9.05
2023-05-08T19:26:22.882Z,8.95
2023-05-08T19:31:24.067Z,9.23
2023-05-08T19:33:57.777Z,7.90
2023-05-08T19:36:25.674Z,8.63
2023-05-08T19:39:02.488Z,8.70
2023-05-08T19:41:38.354Z,8.52
2023-05-08T19:44:32.809Z,8.43
2023-05-08T19:47:09.066Z,8.80
2023-05-08T19:49:40.239Z,8.57
2023-05-08T19:52:18.382Z,8.85
2023-05-08T19:54:51.500Z,8.45
2023-05-08T19:57:32.743Z,9.27
2023-05-08T20:00:06.939Z,8.55
2023-05-08T20:02:42.915Z,8.60
2023-05-08T20:05:22.483Z,8.98
2023-05-08T20:08:04.519Z,8.77
2023-05-08T20:10:41.210Z,7.93
2023-05-08T20:13:19.347Z,8.20
2023-05-08T20:15:53.902Z,8.65
2023-05-08T20:18:30.117Z,7.72
2023-05-08T20:21:04.859Z,7.18
2023-05-08T20:23:39.591Z,7.68
2023-05-08T20:26:12.960Z,9.00
2023-05-08T20:28:54.602Z,8.75
2023-05-08T20:31:29.388Z,8.63
2023-05-08T20:34:07.758Z,7.90
2023-05-08T20:36:46.101Z,9.00
2023-05-08T20:39:24.286Z,8.48
2023-05-08T20:41:57.248Z,8.30
2023-05-08T20:44:35.553Z,8.40
2023-05-08T20:47:06.732Z,8.63
2023-05-08T20:49:42.579Z,8.00
2023-05-08T20:52:18.804Z,8.93
2023-05-08T20:54:54.593Z,8.05
2023-05-08T20:57:28.041Z,10.40
2023-05-08T21:02:42.760Z,7.55
2023-05-08T21:05:19.001Z,8.02
2023-05-08T21:07:52.595Z,9.27
2023-05-08T21:10:31.532Z,8.40
2023-05-08T21:13:09.794Z,8.88
2023-05-08T21:15:40.464Z,8.00
2023-05-08T21:18:13.518Z,8.48
2023-05-08T21:20:50.383Z,8.32
2023-05-08T21:23:31.195Z,8.60
2023-05-08T21:26:01.986Z,7.80
2023-05-08T21:28:34.249Z,8.05
2023-05-08T21:31:04.938Z,8.27
2023-05-08T21:33:44.166Z,7.72
2023-05-08T21:36:20.368Z,7.70
2023-05-08T21:38:56.184Z,8.75
2023-05-08T21:41:29.172Z,8.73
2023-05-08T21:44:07.773Z,8.40
2023-05-08T21:46:42.435Z,7.13
2023-05-08T21:49:18.339Z,8.13
2023-05-08T21:51:58.003Z,8.40
2023-05-08T21:54:36.895Z,8.57
2023-05-08T21:57:14.879Z,9.02
2023-05-08T21:59:53.675Z,9.50
2023-05-08T22:02:28.974Z,8.55
2023-05-08T22:04:56.724Z,8.10
2023-05-08T22:07:33.358Z,7.80
2023-05-08T22:10:09.122Z,8.95
2023-05-08T22:12:39.415Z,8.52
2023-05-08T22:15:28.494Z,8.85
2023-05-08T22:18:04.569Z,7.85
2023-05-08T22:23:08.972Z,8.38
2023-05-08T22:28:20.469Z,8.57
2023-05-08T22:30:53.468Z,8.20
2023-05-08T22:33:26.194Z,7.90
2023-05-08T22:36:04.899Z,8.05
2023-05-08T22:38:40.292Z,8.27
2023-05-08T22:41:13.017Z,8.43
2023-05-08T22:43:52.026Z,10.03
2023-05-08T22:46:25.477Z,8.02
2023-05-08T22:49:06.476Z,8.45
2023-05-08T22:51:44.920Z,7.85
2023-05-08T22:54:14.853Z,8.65
2023-05-08T22:56:56.100Z,8.20
2023-05-08T22:59:34.295Z,8.50
2023-05-08T23:02:10.312Z,8.25
2023-05-08T23:04:49.375Z,7.97
2023-05-08T23:07:22.557Z,8.40
2023-05-08T23:09:58.540Z,10.23
2023-05-08T23:12:39.999Z,9.00
2023-05-08T23:15:11.499Z,8.05
2023-05-08T23:17:47.821Z,7.85
2023-05-08T23:20:25.620Z,7.88
2023-05-08T23:23:04.239Z,8.07
2023-05-08T23:25:42.393Z,8.15
2023-05-08T23:28:16.324Z,8.48
2023-05-08T23:30:52.124Z,8.40
2023-05-08T23:33:31.008Z,8.52
2023-05-08T23:36:07.378Z,7.70
2023-05-08T23:38:50.725Z,8.13
2023-05-08T23:41:29.812Z,9.20
2023-05-08T23:44:08.251Z,8.02
2023-05-08T23:46:41.797Z,8.52
2023-05-08T23:49:20.453Z,8.52
2023-05-08T23:52:05.408Z,8.45
2023-05-08T23:54:42.253Z,7.97
2023-05-08T23:57:15.479Z,8.27
2023-05-08T23:59:48.454Z,7.72
